Time,TemperatureF,DewpointF,PressureIn,WindDirection,WindDirectionDegrees,WindSpeedMPH,WindSpeedGustMPH,Humidity,HourlyPrecipIn,Conditions,Clouds,dailyrainin,SolarRadiationWatts/m^2,SoftwareType,DateUTC
2013-04-25 00:08:00,43.7,34.2,30.19,WSW,237,10.4,10.4,69,0.00,RA,,0.00,0.0,WeatherDisplay:10.37,2013-04-24 23:08:00,
2013-04-25 00:13:00,43.7,34.2,30.19,SW,234,10.4,10.4,69,0.00,CLR,,0.00,0.0,WeatherDisplay:10.37,2013-04-24 23:13:00,
2013-04-25 00:18:00,43.7,34.2,30.19,SW,229,6.9,6.9,69,0.00,CLR,,0.00,0.0,WeatherDisplay:10.37,2013-04-24 23:18:00,
2013-04-25 00:23:00,43.6,35.2,30.19,SW,227,6.0,6.0,72,0.00,CLR,,0.00,0.0,WeatherDisplay:10.37,2013-04-24 23:23:00,
2013-04-25 00:28:00,43.6,34.1,30.19,SW,221,5.8,5.8,69,0.00,CLR,,0.00,0.0,WeatherDisplay:10.37,2013-04-24 23:28:00,
2013-04-25 00:33:00,43.5,34.0,30.19,WSW,244,9.2,9.2,69,0.00,CLR,,0.00,0.0,WeatherDisplay:10.37,2013-04-24 23:33:00,
2013-04-25 00:38:00,43.5,34.0,30.19,WSW,242,9.2,9.2,69,0.00,CLR,,0.00,0.0,WeatherDisplay:10.37,2013-04-24 23:38:00,
2013-04-25 00:43:00,43.4,33.9,30.19,SW,230,8.1,8.1,69,0.00,CLR,,0.00,0.0,WeatherDisplay:10.37,2013-04-24 23:43:00,
2013-04-25 00:48:00,43.4,33.9,30.19,SW,226,6.9,6.9,69,0.00,CLR,,0.00,0.0,WeatherDisplay:10.37,2013-04-24 23:48:00,
2013-04-25 00:53:00,43.3,33.8,30.18,WSW,239,9.2,9.2,69,0.00,CLR,,0.00,0.0,WeatherDisplay:10.37,2013-04-24 23:53:00,
2013-04-25 00:58:00,43.3,34.2,30.18,SW,229,9.2,9.2,70,0.00,CLR,,0.00,0.0,WeatherDisplay:10.37,2013-04-24 23:58:00,
2013-04-25 01:03:00,43.3,34.2,30.18,SW,223,6.9,6.9,70,0.00,CLR,,0.00,0.0,WeatherDisplay:10.37,2013-04-25 00:03:00,
2013-04-25 01:08:00,43.3,34.2,30.18,SW,227,9.2,9.2,70,0.00,CLR,,0.00,0.0,WeatherDisplay:10.37,2013-04-25 00:08:00,
2013-04-25 01:13:00,43.3,34.2,30.18,SW,236,9.0,9.0,70,0.00,CLR,,0.00,0.0,WeatherDisplay:10.37,2013-04-25 00:13:00,
2013-04-25 01:18:00,43.3,34.2,30.18,WSW,237,7.0,7.0,70,0.00,CLR,,0.00,0.0,WeatherDisplay:10.37,2013-04-25 00:18:00,
2013-04-25 01:23:00,43.3,33.8,30.18,SW,230,6.9,6.9,69,0.00,CLR,,0.00,0.0,WeatherDisplay:10.37,2013-04-25 00:23:00,
2013-04-25 01:29:00,43.3,34.2,30.17,SW,232,6.9,6.9,70,0.00,CLR,,0.00,0.0,WeatherDisplay:10.37,2013-04-25 00:29:00,
2013-04-25 01:34:00,43.3,34.2,30.17,SW,232,9.2,9.2,70,0.00,CLR,,0.00,0.0,WeatherDisplay:10.37,2013-04-25 00:34:00,
2013-04-25 01:39:00,43.3,34.2,30.17,SW,225,6.9,6.9,70,0.00,CLR,,0.00,0.0,WeatherDisplay:10.37,2013-04-25 00:39:00,
2013-04-25 01:44:00,43.3,34.2,30.17,SW,234,4.6,4.6,70,0.00,CLR,,0.00,0.0,WeatherDisplay:10.37,2013-04-25 00:44:00,
2013-04-25 01:49:00,43.3,34.2,30.17,SW,228,5.8,5.8,70,0.00,CLR,,0.00,0.0,WeatherDisplay:10.37,2013-04-25 00:49:00,
2013-04-25 01:54:00,43.2,34.1,30.17,SW,222,5.8,5.9,70,0.00,CLR,,0.00,0.0,WeatherDisplay:10.37,2013-04-25 00:54:00,
2013-04-25 01:59:00,43.2,34.1,30.17,SW,225,10.4,10.4,70,0.00,CLR,,0.00,0.0,WeatherDisplay:10.37,2013-04-25 00:59:00,
2013-04-25 02:04:00,43.2,34.1,30.17,SW,223,5.8,5.8,70,0.00,CLR,,0.00,0.0,WeatherDisplay:10.37,2013-04-25 01:04:00,
2013-04-25 02:09:00,43.2,34.1,30.17,SW,215,5.8,5.8,70,0.00,CLR,,0.00,0.0,WeatherDisplay:10.37,2013-04-25 01:09:00,
2013-04-25 02:14:00,43.1,34.0,30.17,SW,224,5.8,5.8,70,0.00,CLR,,0.00,0.0,WeatherDisplay:10.37,2013-04-25 01:14:00,
2013-04-25 02:19:00,43.1,34.0,30.17,SW,234,6.9,6.9,70,0.00,CLR,,0.00,0.0,WeatherDisplay:10.37,2013-04-25 01:19:00,
2013-04-25 02:24:00,43.1,34.0,30.16,SW,234,6.9,6.9,70,0.00,CLR,,0.00,0.0,WeatherDisplay:10.37,2013-04-25 01:24:00,
2013-04-25 02:29:00,43.1,34.0,30.16,SW,233,3.5,3.5,70,0.00,CLR,,0.00,0.0,WeatherDisplay:10.37,2013-04-25 01:29:00,
2013-04-25 02:34:00,43.1,34.3,30.16,SW,233,3.5,3.5,71,0.00,CLR,,0.00,0.0,WeatherDisplay:10.37,2013-04-25 01:34:00,
2013-04-25 02:39:00,43.0,34.2,30.16,SW,232,2.3,2.3,71,0.00,CLR,,0.00,0.0,WeatherDisplay:10.37,2013-04-25 01:39:00,
2013-04-25 02:44:00,43.0,34.2,30.16,SW,232,5.0,5.0,71,0.00,CLR,,0.00,0.0,WeatherDisplay:10.37,2013-04-25 01:44:00,
2013-04-25 02:49:00,43.0,34.2,30.16,SW,233,4.6,4.6,71,0.00,CLR,,0.00,0.0,WeatherDisplay:10.37,2013-04-25 01:49:00,
2013-04-25 02:54:00,42.9,34.1,30.16,SW,232,8.1,8.1,71,0.00,CLR,,0.00,0.0,WeatherDisplay:10.37,2013-04-25 01:54:00,
2013-04-25 02:59:00,43.0,34.2,30.16,SW,234,3.5,3.5,71,0.00,CLR,,0.00,0.0,WeatherDisplay:10.37,2013-04-25 01:59:00,
2013-04-25 03:04:00,43.0,34.2,30.16,SW,232,6.9,6.9,71,0.00,CLR,,0.00,0.0,WeatherDisplay:10.37,2013-04-25 02:04:00,
2013-04-25 03:09:00,43.0,34.2,30.16,SW,225,6.9,6.9,71,0.00,CLR,,0.00,0.0,WeatherDisplay:10.37,2013-04-25 02:09:00,
2013-04-25 03:14:00,43.0,34.2,30.16,SSW,206,6.0,6.0,71,0.00,CLR,,0.00,0.0,WeatherDisplay:10.37,2013-04-25 02:14:00,
2013-04-25 03:19:00,43.0,34.2,30.16,SSW,205,8.0,8.0,71,0.00,CLR,,0.00,0.0,WeatherDisplay:10.37,2013-04-25 02:19:00,
2013-04-25 03:24:00,42.9,34.1,30.15,SW,227,6.0,6.0,71,0.00,CLR,,0.00,0.0,WeatherDisplay:10.37,2013-04-25 02:24:00,
2013-04-25 03:29:00,42.9,34.1,30.15,SW,217,3.5,3.5,71,0.00,CLR,,0.00,0.0,WeatherDisplay:10.37,2013-04-25 02:29:00,
2013-04-25 03:34:00,42.8,34.0,30.15,SW,225,6.0,6.0,71,0.00,CLR,,0.00,0.0,WeatherDisplay:10.37,2013-04-25 02:34:00,
2013-04-25 03:39:00,42.8,34.0,30.15,SW,223,5.8,5.8,71,0.00,CLR,,0.00,0.0,WeatherDisplay:10.37,2013-04-25 02:39:00,
2013-04-25 03:44:00,42.7,34.3,30.15,SW,223,3.5,3.5,72,0.00,CLR,,0.00,0.0,WeatherDisplay:10.37,2013-04-25 02:44:00,
2013-04-25 03:49:00,42.6,34.2,30.15,SW,223,0.0,0.0,72,0.00,CLR,,0.00,0.0,WeatherDisplay:10.37,2013-04-25 02:49:00,
2013-04-25 03:54:00,42.6,34.5,30.15,WSW,239,6.9,6.9,73,0.00,CLR,,0.00,0.0,WeatherDisplay:10.37,2013-04-25 02:54:00,
2013-04-25 03:59:00,42.5,34.1,30.15,WSW,238,6.9,6.9,72,0.00,CLR,,0.00,0.0,WeatherDisplay:10.37,2013-04-25 02:59:00,
2013-04-25 04:04:00,42.4,34.4,30.14,SW,226,5.8,5.8,73,0.00,CLR,,0.00,0.0,WeatherDisplay:10.37,2013-04-25 03:04:00,
2013-04-25 04:09:00,42.4,34.4,30.14,SW,219,4.6,4.6,73,0.00,CLR,,0.00,0.0,WeatherDisplay:10.37,2013-04-25 03:09:00,
2013-04-25 04:14:00,42.4,34.4,30.14,SW,223,5.8,5.8,73,0.00,CLR,,0.00,0.0,WeatherDisplay:10.37,2013-04-25 03:14:00,
2013-04-25 04:19:00,42.4,34.4,30.14,SW,219,3.5,3.5,73,0.00,CLR,,0.00,0.0,WeatherDisplay:10.37,2013-04-25 03:19:00,
2013-04-25 04:24:00,42.3,34.3,30.14,SW,220,4.0,4.0,73,0.00,CLR,,0.00,0.0,WeatherDisplay:10.37,2013-04-25 03:24:00,
2013-04-25 04:29:00,42.3,34.6,30.14,SW,225,3.5,3.5,74,0.00,CLR,,0.00,0.0,WeatherDisplay:10.37,2013-04-25 03:29:00,
2013-04-25 04:34:00,42.2,34.5,30.14,SW,221,5.0,5.0,74,0.00,CLR,,0.00,0.0,WeatherDisplay:10.37,2013-04-25 03:34:00,
2013-04-25 04:39:00,42.2,34.5,30.14,WSW,249,3.5,3.5,74,0.00,CLR,,0.00,0.0,WeatherDisplay:10.37,2013-04-25 03:39:00,
2013-04-25 04:44:00,42.1,34.7,30.14,SW,229,6.9,6.9,75,0.00,CLR,,0.00,0.0,WeatherDisplay:10.37,2013-04-25 03:44:00,
2013-04-25 04:49:00,42.1,34.7,30.14,SW,215,3.5,3.5,75,0.00,CLR,,0.00,0.0,WeatherDisplay:10.37,2013-04-25 03:49:00,
2013-04-25 04:54:00,42.0,35.0,30.13,SW,229,6.9,6.9,76,0.00,CLR,,0.00,0.0,WeatherDisplay:10.37,2013-04-25 03:54:00,
2013-04-25 04:59:00,42.0,35.0,30.13,SW,222,6.9,6.9,76,0.00,CLR,,0.00,0.0,WeatherDisplay:10.37,2013-04-25 03:59:00,
2013-04-25 05:01:00,42.0,35.0,30.13,SW,231,2.3,2.3,76,0.00,CLR,,0.00,0.0,WeatherDisplay:10.37,2013-04-25 04:01:00,
2013-04-25 05:06:00,41.9,35.2,30.13,SW,231,5.8,5.8,77,0.00,CLR,,0.00,0.0,WeatherDisplay:10.37,2013-04-25 04:06:00,
2013-04-25 05:11:00,41.9,35.5,30.13,WSW,238,6.0,6.0,78,0.00,CLR,,0.00,0.0,WeatherDisplay:10.37,2013-04-25 04:11:00,
2013-04-25 05:16:00,41.9,35.5,30.13,SW,230,4.6,4.6,78,0.00,OVC,,0.00,0.0,WeatherDisplay:10.37,2013-04-25 04:16:00,
2013-04-25 05:21:00,41.8,35.4,30.13,SW,230,5.0,5.0,78,0.00,OVC,,0.00,0.0,WeatherDisplay:10.37,2013-04-25 04:21:00,
2013-04-25 05:26:00,41.7,35.3,30.13,SW,224,4.6,4.6,78,0.00,OVC,,0.00,0.0,WeatherDisplay:10.37,2013-04-25 04:26:00,
2013-04-25 05:31:00,41.7,35.7,30.13,SW,226,3.5,3.5,79,0.00,OVC,,0.00,0.0,WeatherDisplay:10.37,2013-04-25 04:31:00,
2013-04-25 05:36:00,41.7,35.7,30.13,SW,226,3.5,3.5,79,0.00,OVC,,0.00,0.0,WeatherDisplay:10.37,2013-04-25 04:36:00,
2013-04-25 05:41:00,41.6,35.6,30.13,SW,227,3.5,3.5,79,0.00,OVC,,0.00,0.0,WeatherDisplay:10.37,2013-04-25 04:41:00,
2013-04-25 05:46:00,41.6,35.6,30.12,SW,226,4.0,4.0,79,0.00,OVC,,0.00,0.0,WeatherDisplay:10.37,2013-04-25 04:46:00,
2013-04-25 05:51:00,41.6,35.6,30.12,SW,226,3.5,3.5,79,0.00,OVC,,0.00,5.0,WeatherDisplay:10.37,2013-04-25 04:51:00,
2013-04-25 05:56:00,41.6,35.9,30.12,SW,226,4.0,4.0,80,0.00,CLR,,0.00,9.0,WeatherDisplay:10.37,2013-04-25 04:56:00,
2013-04-25 06:01:00,41.5,35.8,30.12,SW,226,3.5,3.5,80,0.00,CLR,,0.00,12.0,WeatherDisplay:10.37,2013-04-25 05:01:00,
2013-04-25 06:06:00,41.5,35.8,30.12,SW,227,3.5,3.5,80,0.00,SCT,,0.00,12.0,WeatherDisplay:10.37,2013-04-25 05:06:00,
2013-04-25 06:11:00,41.5,35.8,30.12,SW,226,3.5,3.5,80,0.00,SCT,,0.00,14.0,WeatherDisplay:10.37,2013-04-25 05:11:00,
2013-04-25 06:16:00,41.5,36.1,30.12,SW,227,3.5,3.5,81,0.00,BKN,,0.00,16.0,WeatherDisplay:10.37,2013-04-25 05:16:00,
2013-04-25 06:21:00,41.5,36.1,30.11,SW,227,5.8,5.8,81,0.00,BKN,,0.00,16.0,WeatherDisplay:10.37,2013-04-25 05:21:00,
2013-04-25 06:26:00,41.5,36.4,30.12,SW,236,6.9,6.9,82,0.00,BKN,,0.00,23.0,WeatherDisplay:10.37,2013-04-25 05:26:00,
2013-04-25 06:31:00,41.5,36.4,30.11,SW,220,4.0,4.0,82,0.00,BKN,,0.00,28.0,WeatherDisplay:10.37,2013-04-25 05:31:00,
2013-04-25 06:36:00,41.5,36.7,30.11,SW,228,4.6,4.6,83,0.00,BKN,,0.00,30.0,WeatherDisplay:10.37,2013-04-25 05:36:00,
2013-04-25 06:41:00,41.5,36.7,30.11,SW,236,10.0,10.0,83,0.00,BKN,,0.00,19.0,WeatherDisplay:10.37,2013-04-25 05:41:00,
2013-04-25 06:46:00,41.5,36.7,30.12,SW,227,4.6,4.6,83,0.00,BKN,,0.00,16.0,WeatherDisplay:10.37,2013-04-25 05:46:00,
2013-04-25 06:51:00,41.4,36.9,30.12,WSW,243,4.6,4.6,84,0.00,BKN,,0.00,14.0,WeatherDisplay:10.37,2013-04-25 05:51:00,
2013-04-25 06:56:00,41.4,36.9,30.11,WSW,238,3.5,3.5,84,0.00,BKN,,0.00,14.0,WeatherDisplay:10.37,2013-04-25 05:56:00,
2013-04-25 07:01:00,41.3,36.8,30.11,SW,223,4.6,4.6,84,0.00,BKN,,0.00,14.0,WeatherDisplay:10.37,2013-04-25 06:01:00,
2013-04-25 07:06:00,41.3,36.8,30.11,SW,227,8.1,8.1,84,0.00,BKN,,0.00,21.0,WeatherDisplay:10.37,2013-04-25 06:06:00,
2013-04-25 07:11:00,41.2,36.7,30.10,WSW,245,3.5,3.5,84,0.00,BKN,,0.00,44.0,WeatherDisplay:10.37,2013-04-25 06:11:00,
2013-04-25 07:16:00,41.2,37.0,30.11,SW,221,5.0,5.0,85,0.00,BKN,,0.00,54.0,WeatherDisplay:10.37,2013-04-25 06:16:00,
2013-04-25 07:21:00,41.2,37.0,30.10,West,264,4.6,4.6,85,0.00,BKN,,0.00,49.0,WeatherDisplay:10.37,2013-04-25 06:21:00,
2013-04-25 07:26:00,41.3,37.1,30.10,West,264,1.2,1.2,85,0.00,BKN,,0.00,49.0,WeatherDisplay:10.37,2013-04-25 06:26:00,
2013-04-25 07:32:00,41.3,37.1,30.11,WSW,244,3.5,3.5,85,0.00,BKN,,0.00,60.0,WeatherDisplay:10.37,2013-04-25 06:32:00,
2013-04-25 07:37:00,41.4,37.2,30.10,SW,232,3.5,3.5,85,0.00,BKN,,0.00,67.0,WeatherDisplay:10.37,2013-04-25 06:37:00,
2013-04-25 07:42:00,41.4,37.2,30.11,SW,232,4.6,4.6,85,0.00,BKN,,0.00,58.0,WeatherDisplay:10.37,2013-04-25 06:42:00,
2013-04-25 07:47:00,41.5,37.3,30.11,SW,236,5.8,5.8,85,0.00,BKN,,0.00,74.0,WeatherDisplay:10.37,2013-04-25 06:47:00,
2013-04-25 07:52:00,41.5,37.3,30.10,SW,236,5.0,5.0,85,0.00,BKN,,0.00,98.0,WeatherDisplay:10.37,2013-04-25 06:52:00,
2013-04-25 07:57:00,41.6,37.4,30.10,SSW,211,4.6,4.6,85,0.00,BKN,,0.00,104.0,WeatherDisplay:10.37,2013-04-25 06:57:00,
2013-04-25 08:02:00,41.6,37.1,30.10,SW,227,5.8,5.8,84,0.00,SCT,,0.00,86.0,WeatherDisplay:10.37,2013-04-25 07:02:00,
2013-04-25 08:07:00,41.7,37.2,30.10,WSW,243,5.8,5.8,84,0.00,BKN,,0.00,93.0,WeatherDisplay:10.37,2013-04-25 07:07:00,
2013-04-25 08:12:00,41.7,37.2,30.10,SW,219,5.8,5.8,84,0.00,BKN,,0.00,81.0,WeatherDisplay:10.37,2013-04-25 07:12:00,
2013-04-25 08:17:00,41.8,37.3,30.10,SSW,210,3.5,3.5,84,0.00,BKN,,0.00,67.0,WeatherDisplay:10.37,2013-04-25 07:17:00,
2013-04-25 08:22:00,41.9,37.4,30.10,SW,230,5.8,5.8,84,0.00,BKN,,0.00,84.0,WeatherDisplay:10.37,2013-04-25 07:22:00,
2013-04-25 08:27:00,41.9,37.4,30.10,SSW,213,5.0,5.0,84,0.00,BKN,,0.00,69.0,WeatherDisplay:10.37,2013-04-25 07:27:00,
2013-04-25 08:32:00,41.9,37.4,30.10,SSW,211,4.0,4.0,84,0.00,BKN,,0.00,74.0,WeatherDisplay:10.37,2013-04-25 07:32:00,
2013-04-25 08:37:00,42.0,37.5,30.10,SW,217,3.5,3.5,84,0.00,BKN,,0.00,65.0,WeatherDisplay:10.37,2013-04-25 07:37:00,
2013-04-25 08:42:00,42.0,37.5,30.10,SW,217,1.0,1.2,84,0.00,BKN,,0.00,47.0,WeatherDisplay:10.37,2013-04-25 07:42:00,
2013-04-25 08:47:00,42.0,37.5,30.10,SW,230,4.0,4.0,84,0.00,BKN,,0.01,35.0,WeatherDisplay:10.37,2013-04-25 07:47:00,
2013-04-25 08:52:00,41.9,37.4,30.10,SW,233,0.0,0.1,84,0.01,RA,,0.01,30.0,WeatherDisplay:10.37,2013-04-25 07:52:00,
2013-04-25 08:57:00,41.9,37.4,30.10,SW,233,0.0,0.0,84,0.01,RA,,0.01,42.0,WeatherDisplay:10.37,2013-04-25 07:57:00,
2013-04-25 09:02:00,41.9,37.1,30.10,SW,231,6.9,6.9,83,0.01,OVC,,0.01,47.0,WeatherDisplay:10.37,2013-04-25 08:02:00,
2013-04-25 09:07:00,41.8,37.0,30.10,SW,224,6.9,6.9,83,0.01,BKN,,0.01,65.0,WeatherDisplay:10.37,2013-04-25 08:07:00,
2013-04-25 09:12:00,41.6,37.1,30.10,SW,233,2.3,2.3,84,0.01,BKN,,0.01,70.0,WeatherDisplay:10.37,2013-04-25 08:12:00,
2013-04-25 09:17:00,41.6,36.8,30.10,SW,226,11.5,11.5,83,0.01,BKN,,0.01,90.0,WeatherDisplay:10.37,2013-04-25 08:17:00,
2013-04-25 09:22:00,41.5,37.0,30.10,WSW,244,10.0,10.0,84,0.01,BKN,,0.01,116.0,WeatherDisplay:10.37,2013-04-25 08:22:00,
2013-04-25 09:27:00,41.5,37.0,30.10,SW,230,8.1,8.1,84,0.01,BKN,,0.01,100.0,WeatherDisplay:10.37,2013-04-25 08:27:00,
2013-04-25 09:32:00,41.5,37.0,30.10,SW,231,5.8,5.8,84,0.01,BKN,,0.01,125.0,WeatherDisplay:10.37,2013-04-25 08:32:00,
2013-04-25 09:37:00,41.5,37.3,30.10,WSW,238,10.0,10.0,85,0.01,BKN,,0.01,130.0,WeatherDisplay:10.37,2013-04-25 08:37:00,
2013-04-25 09:42:00,41.6,37.1,30.09,WSW,241,3.5,3.5,84,0.01,BKN,,0.01,141.0,WeatherDisplay:10.37,2013-04-25 08:42:00,
2013-04-25 09:47:00,41.7,37.5,30.09,WSW,238,3.5,3.5,85,0.00,BKN,,0.01,121.0,WeatherDisplay:10.37,2013-04-25 08:47:00,
2013-04-25 09:52:00,41.9,37.7,30.09,WSW,238,5.0,5.0,85,0.00,BKN,,0.01,118.0,WeatherDisplay:10.37,2013-04-25 08:52:00,
2013-04-25 09:57:00,42.0,37.5,30.09,SSW,213,9.2,9.2,84,0.00,BKN,,0.01,113.0,WeatherDisplay:10.37,2013-04-25 08:57:00,
2013-04-25 10:02:00,42.0,37.2,30.09,SSW,211,8.1,8.1,83,0.00,BKN,,0.01,134.0,WeatherDisplay:10.37,2013-04-25 09:02:00,
2013-04-25 10:07:00,42.0,37.2,30.09,SW,220,3.5,3.5,83,0.00,BKN,,0.01,142.0,WeatherDisplay:10.37,2013-04-25 09:07:00,
2013-04-25 10:12:00,42.1,37.6,30.09,SW,219,2.3,2.3,84,0.00,BKN,,0.01,172.0,WeatherDisplay:10.37,2013-04-25 09:12:00,
2013-04-25 10:17:00,42.3,38.1,30.10,West,261,5.8,5.8,85,0.00,BKN,,0.01,125.0,WeatherDisplay:10.37,2013-04-25 09:17:00,
2013-04-25 10:22:00,42.5,37.7,30.09,SSW,211,4.6,4.6,83,0.00,BKN,,0.01,127.0,WeatherDisplay:10.37,2013-04-25 09:22:00,
2013-04-25 10:27:00,42.6,37.5,30.09,SW,227,9.2,9.2,82,0.00,BKN,,0.01,120.0,WeatherDisplay:10.37,2013-04-25 09:27:00,
2013-04-25 10:32:00,42.6,37.2,30.09,SW,216,3.5,3.5,81,0.00,BKN,,0.01,107.0,WeatherDisplay:10.37,2013-04-25 09:32:00,
2013-04-25 10:37:00,42.6,37.5,30.09,SW,223,7.0,7.0,82,0.00,BKN,,0.01,130.0,WeatherDisplay:10.37,2013-04-25 09:37:00,
2013-04-25 10:42:00,42.7,37.6,30.09,SW,215,3.5,3.5,82,0.00,BKN,,0.01,141.0,WeatherDisplay:10.37,2013-04-25 09:42:00,
2013-04-25 10:47:00,42.8,37.7,30.08,SW,215,5.8,5.8,82,0.00,BKN,,0.01,135.0,WeatherDisplay:10.37,2013-04-25 09:47:00,
2013-04-25 10:52:00,42.9,37.8,30.08,WSW,246,6.9,6.9,82,0.00,BKN,,0.01,206.0,WeatherDisplay:10.37,2013-04-25 09:52:00,
2013-04-25 10:57:00,43.2,38.4,30.08,WSW,238,4.6,4.6,83,0.00,BKN,,0.01,279.0,WeatherDisplay:10.37,2013-04-25 09:57:00,
2013-04-25 11:02:00,43.3,38.5,30.08,WSW,238,10.4,10.4,83,0.00,BKN,,0.01,271.0,WeatherDisplay:10.37,2013-04-25 10:02:00,
2013-04-25 11:07:00,43.5,38.1,30.08,SW,227,11.5,11.5,81,0.00,BKN,,0.01,267.0,WeatherDisplay:10.37,2013-04-25 10:07:00,
2013-04-25 11:12:00,43.8,38.7,30.08,SW,227,4.6,4.6,82,0.00,BKN,,0.01,216.0,WeatherDisplay:10.37,2013-04-25 10:12:00,
2013-04-25 11:17:00,44.0,38.9,30.08,SW,236,6.9,6.9,82,0.00,BKN,,0.01,269.0,WeatherDisplay:10.37,2013-04-25 10:17:00,
2013-04-25 11:22:00,44.3,38.5,30.07,SW,236,6.0,6.0,80,0.00,BKN,,0.01,278.0,WeatherDisplay:10.37,2013-04-25 10:22:00,
2013-04-25 11:27:00,44.5,38.4,30.07,SW,218,9.2,9.2,79,0.00,BKN,,0.01,325.0,WeatherDisplay:10.37,2013-04-25 10:27:00,
2013-04-25 11:32:00,44.7,38.9,30.06,SW,229,13.8,13.8,80,0.00,BKN,,0.01,329.0,WeatherDisplay:10.37,2013-04-25 10:32:00,
2013-04-25 11:37:00,44.9,38.8,30.07,SW,233,9.2,9.2,79,0.00,SCT,,0.01,295.0,WeatherDisplay:10.37,2013-04-25 10:37:00,
2013-04-25 11:42:00,45.1,39.0,30.07,SW,225,9.2,9.2,79,0.00,BKN,,0.01,211.0,WeatherDisplay:10.37,2013-04-25 10:42:00,
2013-04-25 11:47:00,45.2,39.1,30.07,SW,227,4.6,4.6,79,0.00,BKN,,0.01,169.0,WeatherDisplay:10.37,2013-04-25 10:47:00,
2013-04-25 11:52:00,45.4,38.9,30.06,SW,217,3.5,3.5,78,0.00,BKN,,0.01,137.0,WeatherDisplay:10.37,2013-04-25 10:52:00,
2013-04-25 11:57:00,45.5,38.7,30.07,SW,233,9.2,9.2,77,0.00,BKN,,0.01,151.0,WeatherDisplay:10.37,2013-04-25 10:57:00,
2013-04-25 12:02:00,45.5,39.0,30.06,SW,236,3.5,3.5,78,0.00,BKN,,0.01,195.0,WeatherDisplay:10.37,2013-04-25 11:02:00,
2013-04-25 12:07:00,45.5,38.7,30.06,WNW,298,10.4,10.4,77,0.00,BKN,,0.01,323.0,WeatherDisplay:10.37,2013-04-25 11:07:00,
2013-04-25 12:12:00,45.7,38.6,30.06,WSW,250,10.4,10.4,76,0.00,BKN,,0.01,432.0,WeatherDisplay:10.37,2013-04-25 11:12:00,
2013-04-25 12:17:00,45.8,38.7,30.06,SW,233,13.8,13.8,76,0.00,SCT,,0.01,313.0,WeatherDisplay:10.37,2013-04-25 11:17:00,
2013-04-25 12:22:00,46.0,38.9,30.05,SW,221,6.0,6.0,76,0.00,SCT,,0.01,283.0,WeatherDisplay:10.37,2013-04-25 11:22:00,
2013-04-25 12:27:00,46.3,38.8,30.05,WSW,238,10.4,10.4,75,0.00,BKN,,0.01,216.0,WeatherDisplay:10.37,2013-04-25 11:27:00,
2013-04-25 12:32:00,46.5,39.0,30.05,WSW,240,6.0,6.0,75,0.00,BKN,,0.01,127.0,WeatherDisplay:10.37,2013-04-25 11:32:00,
2013-04-25 12:37:00,46.5,39.0,30.05,WSW,240,12.7,12.7,75,0.00,BKN,,0.01,105.0,WeatherDisplay:10.37,2013-04-25 11:37:00,
2013-04-25 12:42:00,46.4,38.6,30.05,WSW,240,10.4,10.4,74,0.00,BKN,,0.01,139.0,WeatherDisplay:10.37,2013-04-25 11:42:00,
2013-04-25 12:47:00,46.3,38.8,30.05,WSW,241,5.0,5.7,75,0.00,BKN,,0.01,116.0,WeatherDisplay:10.37,2013-04-25 11:47:00,
2013-04-25 12:52:00,46.2,39.1,30.05,WSW,245,2.3,2.3,76,0.00,BKN,,0.01,118.0,WeatherDisplay:10.37,2013-04-25 11:52:00,
2013-04-25 12:57:00,46.2,39.1,30.05,WSW,247,3.5,3.5,76,0.00,BKN,,0.01,181.0,WeatherDisplay:10.37,2013-04-25 11:57:00,
2013-04-25 13:02:00,46.1,39.0,30.05,SW,234,6.9,6.9,76,0.00,BKN,,0.01,114.0,WeatherDisplay:10.37,2013-04-25 12:02:00,
2013-04-25 13:07:00,46.1,39.0,30.05,WSW,246,10.4,10.4,76,0.00,BKN,,0.01,141.0,WeatherDisplay:10.37,2013-04-25 12:07:00,
2013-04-25 13:12:00,46.2,39.4,30.05,WSW,243,10.4,10.4,77,0.00,BKN,,0.01,294.0,WeatherDisplay:10.37,2013-04-25 12:12:00,
2013-04-25 13:17:00,46.5,40.0,30.05,SW,233,14.0,14.0,78,0.00,SCT,,0.01,1023.0,WeatherDisplay:10.37,2013-04-25 12:17:00,
2013-04-25 13:22:00,47.2,39.7,30.05,WSW,241,5.8,5.8,75,0.00,CLR,,0.01,253.0,WeatherDisplay:10.37,2013-04-25 12:22:00,
2013-04-25 13:27:00,47.9,40.0,30.04,NW,307,3.5,3.5,74,0.00,CLR,,0.01,954.0,WeatherDisplay:10.37,2013-04-25 12:27:00,
2013-04-25 13:33:00,48.6,40.3,30.04,West,260,5.0,5.0,73,0.00,FEW,,0.01,290.0,WeatherDisplay:10.37,2013-04-25 12:33:00,
2013-04-25 13:38:00,48.9,39.2,30.04,WSW,255,11.5,11.5,69,0.00,FEW,,0.01,290.0,WeatherDisplay:10.37,2013-04-25 12:38:00,
2013-04-25 13:43:00,49.1,39.7,30.04,SW,232,6.9,6.9,70,0.00,BKN,,0.01,353.0,WeatherDisplay:10.37,2013-04-25 12:43:00,
2013-04-25 13:48:00,49.3,39.9,30.04,WSW,250,4.6,4.6,70,0.00,BKN,,0.01,510.0,WeatherDisplay:10.37,2013-04-25 12:48:00,
2013-04-25 13:53:00,49.5,39.4,30.03,NNW,329,10.4,10.4,68,0.00,SCT,,0.01,745.0,WeatherDisplay:10.37,2013-04-25 12:53:00,
2013-04-25 13:58:00,50.0,40.6,30.03,WSW,240,9.2,9.2,70,0.00,CLR,,0.01,772.0,WeatherDisplay:10.37,2013-04-25 12:58:00,
2013-04-25 14:03:00,50.4,39.9,30.03,SW,236,13.8,13.8,67,0.00,CLR,,0.01,227.0,WeatherDisplay:10.37,2013-04-25 13:03:00,
2013-04-25 14:08:00,50.5,39.6,30.03,NW,321,9.2,9.2,66,0.00,SCT,,0.01,148.0,WeatherDisplay:10.37,2013-04-25 13:08:00,
2013-04-25 14:13:00,50.4,39.1,30.03,WSW,252,10.4,10.4,65,0.00,BKN,,0.01,374.0,WeatherDisplay:10.37,2013-04-25 13:13:00,
2013-04-25 14:18:00,50.5,39.6,30.03,SW,236,15.0,15.0,66,0.00,BKN,,0.01,255.0,WeatherDisplay:10.37,2013-04-25 13:18:00,
2013-04-25 14:23:00,50.5,39.2,30.03,WSW,245,8.1,8.1,65,0.00,BKN,,0.01,200.0,WeatherDisplay:10.37,2013-04-25 13:23:00,
2013-04-25 14:28:00,50.4,39.1,30.03,WNW,286,10.4,10.4,65,0.00,BKN,,0.01,213.0,WeatherDisplay:10.37,2013-04-25 13:28:00,
2013-04-25 14:33:00,50.3,39.0,30.03,WSW,242,6.9,6.9,65,0.00,BKN,,0.01,221.0,WeatherDisplay:10.37,2013-04-25 13:33:00,
2013-04-25 14:38:00,50.3,39.0,30.03,NW,311,2.3,2.3,65,0.00,BKN,,0.01,160.0,WeatherDisplay:10.37,2013-04-25 13:38:00,
2013-04-25 14:43:00,50.2,38.5,30.02,WNW,302,11.5,11.5,64,0.00,BKN,,0.01,144.0,WeatherDisplay:10.37,2013-04-25 13:43:00,
2013-04-25 14:48:00,50.2,38.5,30.03,WSW,241,4.6,4.6,64,0.00,BKN,,0.01,195.0,WeatherDisplay:10.37,2013-04-25 13:48:00,
2013-04-25 14:53:00,50.1,39.2,30.02,West,264,15.0,15.0,66,0.00,BKN,,0.01,178.0,WeatherDisplay:10.37,2013-04-25 13:53:00,
2013-04-25 14:58:00,50.0,39.5,30.03,WNW,294,3.5,3.5,67,0.00,BKN,,0.01,172.0,WeatherDisplay:10.37,2013-04-25 13:58:00,
2013-04-25 15:03:00,49.8,40.4,30.03,WNW,302,10.4,10.4,70,0.00,BKN,,0.01,139.0,WeatherDisplay:10.37,2013-04-25 14:03:00,
2013-04-25 15:08:00,49.5,41.2,30.03,NNW,330,5.8,5.8,73,0.00,BKN,,0.01,169.0,WeatherDisplay:10.37,2013-04-25 14:08:00,
2013-04-25 15:13:00,49.1,41.5,30.03,WSW,248,10.4,10.4,75,0.00,BKN,,0.01,301.0,WeatherDisplay:10.37,2013-04-25 14:13:00,
2013-04-25 15:18:00,49.0,42.1,30.03,WSW,245,10.4,10.4,77,0.00,BKN,,0.01,204.0,WeatherDisplay:10.37,2013-04-25 14:18:00,
2013-04-25 15:23:00,49.1,42.2,30.02,WSW,252,9.2,9.2,77,0.00,SCT,,0.01,645.0,WeatherDisplay:10.37,2013-04-25 14:23:00,
2013-04-25 15:28:00,49.3,41.7,30.02,WSW,242,6.9,6.9,75,0.00,FEW,,0.01,167.0,WeatherDisplay:10.37,2013-04-25 14:28:00,
2013-04-25 15:33:00,49.5,41.6,30.03,West,275,17.3,17.3,74,0.00,BKN,,0.01,113.0,WeatherDisplay:10.37,2013-04-25 14:33:00,
2013-04-25 15:38:00,49.3,41.7,30.03,SW,232,10.4,10.4,75,0.01,RA,,0.02,121.0,WeatherDisplay:10.37,2013-04-25 14:38:00,
2013-04-25 15:43:00,48.8,41.6,30.03,NW,317,11.5,11.5,76,0.01,RA,,0.02,373.0,WeatherDisplay:10.37,2013-04-25 14:43:00,
2013-04-25 15:48:00,48.4,41.5,30.03,WSW,246,3.5,3.5,77,0.01,BKN,,0.02,279.0,WeatherDisplay:10.37,2013-04-25 14:48:00,
2013-04-25 15:53:00,48.0,41.1,30.03,NNW,329,5.8,5.8,77,0.01,SCT,,0.02,274.0,WeatherDisplay:10.37,2013-04-25 14:53:00,
2013-04-25 15:58:00,47.8,40.9,30.03,West,267,8.1,8.1,77,0.01,SCT,,0.02,425.0,WeatherDisplay:10.37,2013-04-25 14:58:00,
2013-04-25 16:03:00,47.9,41.0,30.03,SW,234,10.4,10.4,77,0.01,FEW,,0.02,629.0,WeatherDisplay:10.37,2013-04-25 15:03:00,
2013-04-25 16:08:00,48.2,39.9,30.02,WSW,253,10.4,10.4,73,0.01,CLR,,0.02,533.0,WeatherDisplay:10.37,2013-04-25 15:08:00,
2013-04-25 16:13:00,48.7,40.8,30.02,WSW,252,10.4,10.4,74,0.01,CLR,,0.02,513.0,WeatherDisplay:10.37,2013-04-25 15:13:00,
2013-04-25 16:18:00,49.1,40.1,30.02,WSW,240,13.8,13.8,71,0.01,CLR,,0.02,504.0,WeatherDisplay:10.37,2013-04-25 15:18:00,
2013-04-25 16:23:00,49.5,39.7,30.02,WSW,240,18.4,18.4,69,0.01,CLR,,0.02,503.0,WeatherDisplay:10.37,2013-04-25 15:23:00,
2013-04-25 16:28:00,49.8,39.7,30.02,West,267,18.4,18.4,68,0.01,CLR,,0.02,485.0,WeatherDisplay:10.37,2013-04-25 15:28:00,
2013-04-25 16:33:00,50.0,39.8,30.02,WNW,300,15.0,15.0,68,0.01,CLR,,0.02,480.0,WeatherDisplay:10.37,2013-04-25 15:33:00,
2013-04-25 16:38:00,50.1,39.9,30.02,WSW,238,10.0,10.0,68,0.00,CLR,,0.02,487.0,WeatherDisplay:10.37,2013-04-25 15:38:00,
2013-04-25 16:43:00,50.2,39.7,30.02,SSW,213,11.5,11.5,67,0.00,CLR,,0.02,401.0,WeatherDisplay:10.37,2013-04-25 15:43:00,
2013-04-25 16:48:00,50.3,40.1,30.02,WSW,248,10.4,10.4,68,0.00,CLR,,0.02,476.0,WeatherDisplay:10.37,2013-04-25 15:48:00,
2013-04-25 16:53:00,50.3,39.8,30.01,SW,229,12.7,12.7,67,0.00,FEW,,0.02,478.0,WeatherDisplay:10.37,2013-04-25 15:53:00,
2013-04-25 16:58:00,50.3,39.8,30.01,NW,309,6.9,6.9,67,0.00,SCT,,0.02,448.0,WeatherDisplay:10.37,2013-04-25 15:58:00,
2013-04-25 17:03:00,50.3,39.0,30.01,NW,312,6.9,6.9,65,0.00,CLR,,0.02,415.0,WeatherDisplay:10.37,2013-04-25 16:03:00,
2013-04-25 17:08:00,50.3,38.6,30.01,WSW,253,15.0,15.0,64,0.00,CLR,,0.02,408.0,WeatherDisplay:10.37,2013-04-25 16:08:00,
2013-04-25 17:13:00,50.2,38.1,30.02,WSW,246,17.3,17.3,63,0.00,CLR,,0.02,383.0,WeatherDisplay:10.37,2013-04-25 16:13:00,
2013-04-25 17:18:00,50.1,38.0,30.02,SW,232,10.4,10.4,63,0.00,CLR,,0.02,311.0,WeatherDisplay:10.37,2013-04-25 16:18:00,
2013-04-25 17:23:00,50.0,38.7,30.01,SW,230,10.4,10.4,65,0.00,FEW,,0.02,213.0,WeatherDisplay:10.37,2013-04-25 16:23:00,
2013-04-25 17:28:00,49.9,39.0,30.01,NNW,336,6.0,6.0,66,0.00,SCT,,0.02,127.0,WeatherDisplay:10.37,2013-04-25 16:28:00,
2013-04-25 17:33:00,49.7,38.4,30.01,West,279,10.4,10.4,65,0.00,BKN,,0.02,70.0,WeatherDisplay:10.37,2013-04-25 16:33:00,
2013-04-25 17:38:00,49.5,38.2,30.01,WNW,290,17.3,17.3,65,0.00,BKN,,0.02,53.0,WeatherDisplay:10.37,2013-04-25 16:38:00,
2013-04-25 17:43:00,49.3,38.0,30.01,NW,310,5.8,5.8,65,0.00,BKN,,0.02,62.0,WeatherDisplay:10.37,2013-04-25 16:43:00,
2013-04-25 17:48:00,49.1,38.6,30.01,West,264,6.9,6.9,67,0.00,BKN,,0.02,40.0,WeatherDisplay:10.37,2013-04-25 16:48:00,
2013-04-25 17:53:00,49.0,38.1,30.01,WSW,257,5.8,5.8,66,0.00,BKN,,0.02,40.0,WeatherDisplay:10.37,2013-04-25 16:53:00,
2013-04-25 17:58:00,48.9,38.4,30.01,NW,319,5.8,5.8,67,0.00,BKN,,0.02,102.0,WeatherDisplay:10.37,2013-04-25 16:58:00,
2013-04-25 18:03:00,48.8,37.9,30.00,NW,307,19.6,19.6,66,0.00,BKN,,0.02,95.0,WeatherDisplay:10.37,2013-04-25 17:03:00,
2013-04-25 18:08:00,48.6,37.7,30.00,WNW,293,9.2,9.2,66,0.00,BKN,,0.02,33.0,WeatherDisplay:10.37,2013-04-25 17:08:00,
2013-04-25 18:13:00,48.5,37.7,30.00,WSW,250,13.0,13.0,66,0.00,BKN,,0.02,35.0,WeatherDisplay:10.37,2013-04-25 17:13:00,
2013-04-25 18:18:00,48.3,38.6,30.00,North,350,10.0,10.0,69,0.00,BKN,,0.02,39.0,WeatherDisplay:10.37,2013-04-25 17:18:00,
2013-04-25 18:23:00,48.1,37.3,30.00,SW,219,5.8,5.8,66,0.00,BKN,,0.02,40.0,WeatherDisplay:10.37,2013-04-25 17:23:00,
2013-04-25 18:28:00,47.9,36.7,30.00,SW,234,15.0,15.0,65,0.00,BKN,,0.02,35.0,WeatherDisplay:10.37,2013-04-25 17:28:00,
2013-04-25 18:33:00,47.9,36.7,30.00,West,270,18.4,18.4,65,0.00,BKN,,0.02,33.0,WeatherDisplay:10.37,2013-04-25 17:33:00,
2013-04-25 18:39:00,47.8,36.6,30.00,WNW,297,12.7,12.7,65,0.00,BKN,,0.02,32.0,WeatherDisplay:10.37,2013-04-25 17:39:00,
2013-04-25 18:44:00,47.8,37.0,30.00,WSW,246,5.8,5.8,66,0.00,BKN,,0.02,30.0,WeatherDisplay:10.37,2013-04-25 17:44:00,
2013-04-25 18:49:00,47.7,37.3,30.00,WSW,255,10.4,10.4,67,0.00,BKN,,0.02,28.0,WeatherDisplay:10.37,2013-04-25 17:49:00,
2013-04-25 18:54:00,47.7,37.3,30.00,West,266,10.4,10.4,67,0.00,BKN,,0.02,28.0,WeatherDisplay:10.37,2013-04-25 17:54:00,
2013-04-25 18:59:00,47.6,36.4,30.00,SW,231,11.5,11.5,65,0.00,BKN,,0.02,28.0,WeatherDisplay:10.37,2013-04-25 17:59:00,
2013-04-25 19:04:00,47.6,36.0,30.00,WNW,287,5.8,5.8,64,0.00,BKN,,0.02,26.0,WeatherDisplay:10.37,2013-04-25 18:04:00,
2013-04-25 19:09:00,47.5,36.3,30.00,West,259,3.5,3.5,65,0.00,BKN,,0.02,25.0,WeatherDisplay:10.37,2013-04-25 18:09:00,
2013-04-25 19:14:00,47.5,36.3,30.00,WSW,253,6.0,6.0,65,0.00,BKN,,0.02,25.0,WeatherDisplay:10.37,2013-04-25 18:14:00,
2013-04-25 19:19:00,47.5,36.3,30.00,WSW,250,6.9,6.9,65,0.00,BKN,,0.02,23.0,WeatherDisplay:10.37,2013-04-25 18:19:00,
2013-04-25 19:24:00,47.4,36.2,30.00,WSW,252,6.9,6.9,65,0.00,BKN,,0.02,21.0,WeatherDisplay:10.37,2013-04-25 18:24:00,
2013-04-25 19:29:00,47.3,35.7,30.00,WSW,242,6.9,6.9,64,0.00,BKN,,0.02,21.0,WeatherDisplay:10.37,2013-04-25 18:29:00,
2013-04-25 19:34:00,47.1,35.9,30.01,WSW,248,9.0,9.0,65,0.00,BKN,,0.02,21.0,WeatherDisplay:10.37,2013-04-25 18:34:00,
2013-04-25 19:39:00,47.0,36.2,30.00,WSW,244,2.3,2.3,66,0.00,BKN,,0.02,18.0,WeatherDisplay:10.37,2013-04-25 18:39:00,
2013-04-25 19:44:00,46.8,36.0,30.00,WSW,252,7.0,7.0,66,0.00,BKN,,0.02,18.0,WeatherDisplay:10.37,2013-04-25 18:44:00,
2013-04-25 19:49:00,46.6,35.8,30.01,WSW,257,12.7,12.7,66,0.00,BKN,,0.02,18.0,WeatherDisplay:10.37,2013-04-25 18:49:00,
2013-04-25 19:54:00,46.5,36.1,30.01,WSW,251,11.5,11.5,67,0.00,BKN,,0.02,18.0,WeatherDisplay:10.37,2013-04-25 18:54:00,
2013-04-25 19:59:00,46.3,35.9,30.00,SW,232,11.5,11.5,67,0.00,BKN,,0.02,16.0,WeatherDisplay:10.37,2013-04-25 18:59:00,
2013-04-25 20:04:00,46.2,36.2,30.00,SW,222,3.5,3.5,68,0.00,BKN,,0.02,14.0,WeatherDisplay:10.37,2013-04-25 19:04:00,
2013-04-25 20:09:00,46.0,36.4,30.00,SW,224,3.5,3.5,69,0.00,BKN,,0.02,12.0,WeatherDisplay:10.37,2013-04-25 19:09:00,
2013-04-25 20:14:00,45.8,36.2,30.00,West,280,7.0,7.0,69,0.00,BKN,,0.02,12.0,WeatherDisplay:10.37,2013-04-25 19:14:00,
2013-04-25 20:19:00,45.6,36.4,30.00,West,275,6.9,6.9,70,0.00,BKN,,0.02,11.0,WeatherDisplay:10.37,2013-04-25 19:19:00,
2013-04-25 20:24:00,45.4,36.2,30.00,WSW,250,10.4,10.4,70,0.00,BKN,,0.02,9.0,WeatherDisplay:10.37,2013-04-25 19:24:00,
2013-04-25 20:29:00,45.2,36.0,30.00,WSW,244,7.0,7.0,70,0.00,BKN,,0.02,7.0,WeatherDisplay:10.37,2013-04-25 19:29:00,
2013-04-25 20:34:00,45.0,35.4,30.00,NW,307,6.9,6.9,69,0.00,BKN,,0.02,5.0,WeatherDisplay:10.37,2013-04-25 19:34:00,
2013-04-25 20:39:00,44.9,35.7,30.00,WSW,238,3.5,3.5,70,0.00,CLR,,0.02,5.0,WeatherDisplay:10.37,2013-04-25 19:39:00,
2013-04-25 20:44:00,44.7,35.5,30.00,NW,309,10.4,10.4,70,0.00,OVC,,0.02,0.0,WeatherDisplay:10.37,2013-04-25 19:44:00,
2013-04-25 20:49:00,44.5,35.3,30.00,WNW,283,10.4,10.4,70,0.00,OVC,,0.02,0.0,WeatherDisplay:10.37,2013-04-25 19:49:00,
2013-04-25 20:54:00,44.3,35.5,30.01,West,281,3.5,3.5,71,0.00,OVC,,0.02,0.0,WeatherDisplay:10.37,2013-04-25 19:54:00,
2013-04-25 20:59:00,44.2,35.4,30.01,WSW,241,3.5,3.5,71,0.00,OVC,,0.02,0.0,WeatherDisplay:10.37,2013-04-25 19:59:00,
2013-04-25 21:04:00,44.0,35.6,30.02,West,277,4.6,4.6,72,0.00,CLR,,0.02,0.0,WeatherDisplay:10.37,2013-04-25 20:04:00,
2013-04-25 21:09:00,43.8,35.4,30.02,WSW,246,8.1,8.1,72,0.00,CLR,,0.02,0.0,WeatherDisplay:10.37,2013-04-25 20:09:00,
2013-04-25 21:14:00,43.7,35.3,30.02,SW,220,4.6,0.0,72,0.00,CLR,,0.02,0.0,WeatherDisplay:10.37,2013-04-25 20:14:00,
2013-04-25 21:19:00,43.5,35.1,30.02,SW,230,0.0,0.0,72,0.00,CLR,,0.02,0.0,WeatherDisplay:10.37,2013-04-25 20:19:00,
2013-04-25 21:24:00,43.4,35.0,30.02,SW,217,5.8,5.8,72,0.00,CLR,,0.02,0.0,WeatherDisplay:10.37,2013-04-25 20:24:00,
2013-04-25 21:29:00,43.3,35.2,30.02,SW,217,3.5,3.5,73,0.00,CLR,,0.02,0.0,WeatherDisplay:10.37,2013-04-25 20:29:00,
2013-04-25 21:34:00,43.3,35.2,30.03,SW,214,3.5,3.5,73,0.00,CLR,,0.02,0.0,WeatherDisplay:10.37,2013-04-25 20:34:00,
2013-04-25 21:40:00,43.2,35.1,30.02,WSW,238,6.9,6.9,73,0.00,CLR,,0.02,0.0,WeatherDisplay:10.37,2013-04-25 20:40:00,
2013-04-25 21:45:00,43.1,35.4,30.02,WSW,241,6.9,6.9,74,0.00,CLR,,0.02,0.0,WeatherDisplay:10.37,2013-04-25 20:45:00,
2013-04-25 21:50:00,43.1,35.4,30.03,SW,234,5.8,5.8,74,0.00,CLR,,0.02,0.0,WeatherDisplay:10.37,2013-04-25 20:50:00,
2013-04-25 21:55:00,43.0,35.3,30.02,SW,234,8.1,8.1,74,0.00,CLR,,0.02,0.0,WeatherDisplay:10.37,2013-04-25 20:55:00,
2013-04-25 22:00:00,43.0,35.6,30.03,SW,235,5.8,5.8,75,0.00,CLR,,0.02,0.0,WeatherDisplay:10.37,2013-04-25 21:00:00,
2013-04-25 22:05:00,42.9,35.5,30.02,WSW,238,10.4,10.4,75,0.00,CLR,,0.02,0.0,WeatherDisplay:10.37,2013-04-25 21:05:00,
2013-04-25 22:10:00,42.7,35.3,30.02,SW,230,10.4,10.4,75,0.00,CLR,,0.02,0.0,WeatherDisplay:10.37,2013-04-25 21:10:00,
2013-04-25 22:15:00,42.5,35.5,30.03,SW,223,4.6,4.6,76,0.00,CLR,,0.02,0.0,WeatherDisplay:10.37,2013-04-25 21:15:00,
2013-04-25 22:20:00,42.4,35.0,30.03,SW,226,3.5,3.5,75,0.00,CLR,,0.02,0.0,WeatherDisplay:10.37,2013-04-25 21:20:00,
2013-04-25 22:25:00,42.3,35.3,30.03,WSW,237,3.5,3.5,76,0.00,CLR,,0.02,0.0,WeatherDisplay:10.37,2013-04-25 21:25:00,
2013-04-25 22:30:00,42.1,35.1,30.03,SW,221,5.8,5.8,76,0.00,CLR,,0.02,0.0,WeatherDisplay:10.37,2013-04-25 21:30:00,
2013-04-25 22:35:00,42.0,35.0,30.02,South,183,3.5,3.5,76,0.00,CLR,,0.02,0.0,WeatherDisplay:10.37,2013-04-25 21:35:00,
2013-04-25 22:40:00,41.8,34.8,30.02,WSW,237,5.8,5.8,76,0.00,CLR,,0.02,0.0,WeatherDisplay:10.37,2013-04-25 21:40:00,
2013-04-25 22:45:00,41.6,34.6,30.02,SW,231,9.2,9.2,76,0.00,CLR,,0.02,0.0,WeatherDisplay:10.37,2013-04-25 21:45:00,
2013-04-25 22:50:00,41.5,34.5,30.02,WSW,237,9.0,9.0,76,0.00,CLR,,0.02,0.0,WeatherDisplay:10.37,2013-04-25 21:50:00,
2013-04-25 22:55:00,41.4,34.4,30.02,WSW,243,8.0,8.0,76,0.00,CLR,,0.02,0.0,WeatherDisplay:10.37,2013-04-25 21:55:00,
2013-04-25 23:00:00,41.3,34.6,30.02,WSW,248,11.5,11.5,77,0.00,CLR,,0.02,0.0,WeatherDisplay:10.37,2013-04-25 22:00:00,
2013-04-25 23:05:00,41.2,34.5,30.02,WSW,241,6.9,6.9,77,0.00,CLR,,0.02,0.0,WeatherDisplay:10.37,2013-04-25 22:05:00,
2013-04-25 23:10:00,41.1,34.4,30.02,WSW,241,10.4,10.4,77,0.00,CLR,,0.02,0.0,WeatherDisplay:10.37,2013-04-25 22:10:00,
2013-04-25 23:15:00,41.0,34.3,30.02,WSW,237,9.2,9.2,77,0.00,CLR,,0.02,0.0,WeatherDisplay:10.37,2013-04-25 22:15:00,
2013-04-25 23:20:00,40.9,34.2,30.02,WSW,238,2.3,2.3,77,0.00,CLR,,0.02,0.0,WeatherDisplay:10.37,2013-04-25 22:20:00,
2013-04-25 23:25:00,40.8,34.5,30.02,WSW,244,2.3,2.3,78,0.00,CLR,,0.02,0.0,WeatherDisplay:10.37,2013-04-25 22:25:00,
2013-04-25 23:30:00,40.7,34.4,30.02,WSW,244,3.5,3.5,78,0.00,CLR,,0.02,0.0,WeatherDisplay:10.37,2013-04-25 22:30:00,
2013-04-25 23:35:00,40.5,34.5,30.02,WSW,242,11.5,11.5,79,0.00,CLR,,0.02,0.0,WeatherDisplay:10.37,2013-04-25 22:35:00,
2013-04-25 23:40:00,40.3,34.6,30.02,WSW,241,8.1,8.1,80,0.00,CLR,,0.02,0.0,WeatherDisplay:10.37,2013-04-25 22:40:00,
2013-04-25 23:45:00,40.2,34.5,30.01,WSW,240,6.9,6.9,80,0.00,CLR,,0.02,0.0,WeatherDisplay:10.37,2013-04-25 22:45:00,
2013-04-25 23:50:00,40.1,34.4,30.01,SW,234,11.5,11.5,80,0.00,CLR,,0.02,0.0,WeatherDisplay:10.37,2013-04-25 22:50:00,
2013-04-25 23:55:00,40.1,34.4,30.01,WSW,242,12.7,12.7,80,0.00,CLR,,0.02,0.0,WeatherDisplay:10.37,2013-04-25 22:55:00,